sim
Sign-in with your pilot id or email,
or register
Callsign
Passwort

Schedule Details

Flight Number: DLH1647 (2)
Departure: Gdansk Lech Walesa Airport (EPGD) at 05:00
Arrival: Munich Airport (EDDM) at 06:40
Route: Lufthansa Passenger Schedule. Enter filed route here before submitting Pirep.

Weather Information
Getting current METAR information for EPGD 221430Z 18010KT CAVOK 24/10 Q1011
Getting current METAR information for EDDM 221450Z 04005KT 9999 FEW040 24/13 Q1011 NOSIG

Schedule Frequency

Route Map